DAL2623 KPBI-KJFK
Flight info
| Callsign | DAL2623 |
|---|---|
| Flight time | N/A |
| Altitude | 37000 |
| Route | SLIDZ3 LENDS PELCN Y309 FLRDA SAGGY CHIEZ Q161 KALDA Q108 SIE CAMRN5 |
| Aircraft | B738/M-SDE2E3FGHIRWXY/LB1 |
Departure
| Time | N/A |
|---|---|
| Airport | Palm Beach International Airport (KPBI) |
Arrival
| Time | 2026-05-07 19:48 |
|---|---|
| Airport | John F. Kennedy International Airport (KJFK) |
| Time | Latitude | Longitude | Altitude | Speed | Heading |
|---|---|---|---|---|---|
| 2026-05-07 19:32 | 39.97304 | -73.89250 | 11670 ft | 371 kts | 23° |
| 2026-05-07 19:32 | 39.99534 | -73.87669 | 11308 ft | 358 kts | 23° |
| 2026-05-07 19:32 | 40.01632 | -73.86087 | 11040 ft | 349 kts | 30° |
| 2026-05-07 19:33 | 40.03461 | -73.84118 | 10968 ft | 334 kts | 36° |
| 2026-05-07 19:33 | 40.05176 | -73.82106 | 10596 ft | 330 kts | 37° |
| 2026-05-07 19:33 | 40.06877 | -73.80080 | 10280 ft | 330 kts | 37° |
| 2026-05-07 19:33 | 40.08561 | -73.78058 | 10041 ft | 327 kts | 37° |
| 2026-05-07 19:34 | 40.10230 | -73.76041 | 9770 ft | 325 kts | 37° |
| 2026-05-07 19:34 | 40.11877 | -73.74043 | 9504 ft | 322 kts | 37° |
| 2026-05-07 19:34 | 40.13512 | -73.72055 | 9264 ft | 318 kts | 37° |
| 2026-05-07 19:34 | 40.15127 | -73.70090 | 9013 ft | 315 kts | 37° |
| 2026-05-07 19:35 | 40.16720 | -73.68152 | 8766 ft | 311 kts | 37° |
| 2026-05-07 19:35 | 40.18276 | -73.66261 | 8539 ft | 308 kts | 37° |
| 2026-05-07 19:35 | 40.19847 | -73.64344 | 8324 ft | 302 kts | 37° |
| 2026-05-07 19:35 | 40.21364 | -73.62495 | 8050 ft | 301 kts | 37° |
| 2026-05-07 19:36 | 40.22889 | -73.60640 | 7808 ft | 297 kts | 37° |
| 2026-05-07 19:36 | 40.24400 | -73.58807 | 7580 ft | 293 kts | 37° |
| 2026-05-07 19:36 | 40.25874 | -73.57014 | 7436 ft | 281 kts | 37° |
| 2026-05-07 19:36 | 40.27268 | -73.55310 | 7317 ft | 267 kts | 37° |
| 2026-05-07 19:37 | 40.28582 | -73.53688 | 7232 ft | 252 kts | 37° |
| 2026-05-07 19:37 | 40.29803 | -73.52163 | 7137 ft | 234 kts | 37° |
| 2026-05-07 19:37 | 40.30924 | -73.50742 | 6998 ft | 220 kts | 37° |
| 2026-05-07 19:37 | 40.32006 | -73.49360 | 6694 ft | 215 kts | 37° |
| 2026-05-07 19:38 | 40.33064 | -73.48007 | 6393 ft | 210 kts | 37° |
| 2026-05-07 19:38 | 40.34100 | -73.46684 | 6059 ft | 206 kts | 37° |
| 2026-05-07 19:38 | 40.35215 | -73.45563 | 5689 ft | 199 kts | 26° |
| 2026-05-07 19:38 | 40.36368 | -73.44575 | 5355 ft | 196 kts | 27° |
| 2026-05-07 19:39 | 40.37489 | -73.43624 | 5053 ft | 193 kts | 27° |
| 2026-05-07 19:39 | 40.38629 | -73.42689 | 4771 ft | 192 kts | 27° |
| 2026-05-07 19:39 | 40.39765 | -73.41782 | 4478 ft | 191 kts | 27° |
| 2026-05-07 19:39 | 40.40909 | -73.40892 | 4193 ft | 190 kts | 24° |
| 2026-05-07 19:40 | 40.42153 | -73.40562 | 3864 ft | 186 kts | 352° |
| 2026-05-07 19:40 | 40.43426 | -73.40839 | 3573 ft | 185 kts | 348° |
| 2026-05-07 19:40 | 40.44688 | -73.41171 | 3279 ft | 185 kts | 347° |
| 2026-05-07 19:40 | 40.45951 | -73.41526 | 2982 ft | 185 kts | 343° |
| 2026-05-07 19:41 | 40.46989 | -73.42457 | 2676 ft | 184 kts | 301° |
| 2026-05-07 19:41 | 40.47564 | -73.43974 | 2359 ft | 185 kts | 301° |
| 2026-05-07 19:41 | 40.48294 | -73.45365 | 2096 ft | 184 kts | 304° |
| 2026-05-07 19:41 | 40.48995 | -73.46813 | 2054 ft | 193 kts | 301° |
| 2026-05-07 19:42 | 40.49704 | -73.48291 | 2005 ft | 189 kts | 303° |
| 2026-05-07 19:42 | 40.50412 | -73.49730 | 1997 ft | 186 kts | 302° |
| 2026-05-07 19:42 | 40.51091 | -73.51176 | 1996 ft | 186 kts | 301° |
| 2026-05-07 19:42 | 40.51763 | -73.52647 | 2017 ft | 188 kts | 300° |
| 2026-05-07 19:43 | 40.52434 | -73.54133 | 2010 ft | 189 kts | 300° |
| 2026-05-07 19:43 | 40.53102 | -73.55617 | 1995 ft | 188 kts | 300° |
| 2026-05-07 19:43 | 40.53754 | -73.57070 | 2001 ft | 186 kts | 300° |
| 2026-05-07 19:43 | 40.54407 | -73.58525 | 2003 ft | 184 kts | 300° |
| 2026-05-07 19:44 | 40.55055 | -73.59967 | 1993 ft | 179 kts | 300° |
| 2026-05-07 19:44 | 40.55668 | -73.61331 | 1991 ft | 168 kts | 300° |
| 2026-05-07 19:44 | 40.56272 | -73.62676 | 2006 ft | 170 kts | 300° |
| 2026-05-07 19:44 | 40.56872 | -73.64010 | 1994 ft | 168 kts | 300° |
| 2026-05-07 19:45 | 40.57459 | -73.65315 | 1989 ft | 166 kts | 300° |
| 2026-05-07 19:45 | 40.58044 | -73.66616 | 1992 ft | 165 kts | 300° |
| 2026-05-07 19:45 | 40.58640 | -73.67940 | 1850 ft | 176 kts | 301° |
| 2026-05-07 19:45 | 40.59274 | -73.69343 | 1564 ft | 177 kts | 299° |
| 2026-05-07 19:46 | 40.59888 | -73.70715 | 1339 ft | 170 kts | 300° |
| 2026-05-07 19:46 | 40.60471 | -73.72007 | 1119 ft | 159 kts | 298° |
| 2026-05-07 19:46 | 40.61013 | -73.73214 | 941 ft | 150 kts | 298° |
| 2026-05-07 19:46 | 40.61538 | -73.74373 | 725 ft | 144 kts | 301° |
| 2026-05-07 19:47 | 40.62039 | -73.75492 | 530 ft | 139 kts | 301° |
| 2026-05-07 19:47 | 40.62532 | -73.76595 | 329 ft | 140 kts | 304° |
| 2026-05-07 19:47 | 40.63029 | -73.77702 | 136 ft | 144 kts | 305° |
| 2026-05-07 19:47 | 40.63536 | -73.78799 | 24 ft | 131 kts | 304° |
| 2026-05-07 19:48 | 40.63935 | -73.79682 | 19 ft | 91 kts | 301° |
| 2026-05-07 19:48 | 40.64133 | -73.80092 | 23 ft | 19 kts | 314° |
| 2026-05-07 19:48 | 40.64238 | -73.80185 | 20 ft | 11 kts | 332° |
| 2026-05-07 19:48 | 40.64298 | -73.80189 | 19 ft | 8 kts | 35° |
| 2026-05-07 19:49 | 40.64309 | -73.80120 | 19 ft | 8 kts | 109° |
| 2026-05-07 19:49 | 40.64279 | -73.80051 | 20 ft | 10 kts | 121° |
| 2026-05-07 19:49 | 40.64233 | -73.79968 | 20 ft | 13 kts | 131° |
| 2026-05-07 19:49 | 40.64168 | -73.79884 | 20 ft | 5 kts | 135° |
| 2026-05-07 19:50 | 40.64132 | -73.79830 | 22 ft | 12 kts | 126° |
| 2026-05-07 19:50 | 40.64073 | -73.79702 | 20 ft | 21 kts | 120° |
| 2026-05-07 19:50 | 40.63984 | -73.79508 | 21 ft | 28 kts | 120° |
| 2026-05-07 19:50 | 40.63886 | -73.79288 | 19 ft | 27 kts | 122° |
| 2026-05-07 19:51 | 40.63810 | -73.79125 | 21 ft | 13 kts | 120° |
| 2026-05-07 19:51 | 40.63773 | -73.79042 | 20 ft | 9 kts | 120° |
| 2026-05-07 19:51 | 40.63740 | -73.78970 | 20 ft | 10 kts | 121° |
| 2026-05-07 19:51 | 40.63701 | -73.78885 | 21 ft | 12 kts | 121° |
| 2026-05-07 19:52 | 40.63647 | -73.78763 | 21 ft | 19 kts | 120° |
| 2026-05-07 19:52 | 40.63585 | -73.78627 | 21 ft | 12 kts | 115° |
| 2026-05-07 19:52 | 40.63607 | -73.78527 | 21 ft | 12 kts | 65° |
| 2026-05-07 19:52 | 40.63586 | -73.78430 | 20 ft | 11 kts | 120° |
| 2026-05-07 19:53 | 40.63589 | -73.78381 | 22 ft | 6 kts | 39° |
| 2026-05-07 19:53 | 40.63630 | -73.78352 | 20 ft | 8 kts | 17° |
| 2026-05-07 19:53 | 40.63701 | -73.78357 | 20 ft | 11 kts | 354° |
| 2026-05-07 19:53 | 40.63749 | -73.78319 | 20 ft | 9 kts | 68° |
| 2026-05-07 19:54 | 40.63784 | -73.78256 | 22 ft | 8 kts | 65° |
| 2026-05-07 19:54 | 40.63788 | -73.78230 | 20 ft | 1 kts | 82° |
| 2026-05-07 19:54 | 40.63788 | -73.78224 | 20 ft | 1 kts | 82° |
| 2026-05-07 19:54 | 40.63790 | -73.78212 | 20 ft | 3 kts | 82° |
| 2026-05-07 19:55 | 40.63792 | -73.78187 | 21 ft | 1 kts | 83° |
| 2026-05-07 19:55 | 40.63792 | -73.78186 | 21 ft | 0 kts | 83° |